Time;durP1;ratioP1;P1;durP2;ratioP2;P2;SDS_P1;SDS_P2;PMS_P1;PMS_P2;Temp;Humidity;BMP_temperature;BMP_pressure;BME280_temperature;BME280_humidity;BME280_pressure;Samples;Min_cycle;Max_cycle;Signal;HPM_P1;HPM_P2
2021/12/03 00:02:24;;;;;;;;;24.25;17.50;;;;;4.58;69.18;101251.69;5055862;28;45963;-52
2021/12/03 00:04:49;;;;;;;;;22.25;17.00;;;;;4.58;69.09;101254.28;5054834;28;45425;-54
2021/12/03 00:07:16;;;;;;;;;20.75;16.00;;;;;4.58;69.45;101254.28;5057689;28;45884;-55
2021/12/03 00:09:42;;;;;;;;;28.25;22.50;;;;;4.59;68.89;101249.94;5058293;28;45849;-54
2021/12/03 00:12:08;;;;;;;;;28.25;22.00;;;;;4.58;69.89;101241.25;5057453;28;45499;-55
2021/12/03 00:14:35;;;;;;;;;25.75;20.00;;;;;4.58;69.99;101238.66;5055093;28;45413;-56
2021/12/03 00:17:01;;;;;;;;;26.25;21.25;;;;;4.57;68.89;101249.09;5072856;28;45514;-54
2021/12/03 00:19:27;;;;;;;;;26.25;21.25;;;;;4.57;69.96;101256.91;5059104;28;45406;-54
2021/12/03 00:21:53;;;;;;;;;26.25;20.50;;;;;4.55;69.56;101254.34;5058415;28;46057;-54
2021/12/03 00:24:19;;;;;;;;;25.25;21.25;;;;;4.54;69.39;101249.19;5056496;28;45475;-54
2021/12/03 00:26:44;;;;;;;;;29.25;20.75;;;;;4.53;69.79;101250.09;5057962;28;45386;-52
2021/12/03 00:29:10;;;;;;;;;27.00;21.50;;;;;4.52;69.72;101251.00;5054718;28;45458;-54
2021/12/03 00:31:35;;;;;;;;;19.75;19.75;;;;;4.52;70.24;101249.22;5056991;28;45889;-54
2021/12/03 00:34:02;;;;;;;;;27.25;25.00;;;;;4.53;69.74;101252.69;5056670;28;45481;-54
2021/12/03 00:36:28;;;;;;;;;25.50;20.50;;;;;4.54;69.87;101250.03;5057529;28;45540;-56
2021/12/03 00:38:58;;;;;;;;;26.75;22.25;;;;;4.54;69.59;101252.66;5069633;27;45506;-55
2021/12/03 00:41:24;;;;;;;;;26.00;22.50;;;;;4.54;69.46;101249.19;5056000;28;45521;-53
2021/12/03 00:43:52;;;;;;;;;29.75;27.00;;;;;4.53;70.58;101253.56;5056672;28;45468;-55
2021/12/03 00:46:20;;;;;;;;;28.00;26.00;;;;;4.54;69.39;101254.41;5057694;28;45375;-55
2021/12/03 00:48:47;;;;;;;;;30.75;27.25;;;;;4.54;69.87;101260.47;5054934;28;45445;-54
2021/12/03 00:51:15;;;;;;;;;26.00;23.00;;;;;4.57;70.39;101254.31;5057821;28;45951;-52
2021/12/03 00:53:41;;;;;;;;;30.75;28.25;;;;;4.60;69.36;101259.47;5057863;27;45457;-56
2021/12/03 00:56:08;;;;;;;;;29.75;19.25;;;;;4.62;69.70;101261.13;5056776;28;45961;-53
2021/12/03 00:58:34;;;;;;;;;21.75;17.75;;;;;4.64;69.89;101256.72;5056905;28;45457;-56
2021/12/03 01:01:00;;;;;;;;;25.25;19.25;;;;;4.69;70.57;101264.44;5058885;28;45410;-51
2021/12/03 01:03:26;;;;;;;;;30.75;20.50;;;;;4.72;69.97;101282.63;5055668;28;45413;-56
2021/12/03 01:05:52;;;;;;;;;26.75;19.50;;;;;4.72;69.90;101273.03;5057163;28;45430;-55
2021/12/03 01:08:18;;;;;;;;;32.50;25.00;;;;;4.74;70.36;101258.22;5054972;28;45349;-55
2021/12/03 01:10:43;;;;;;;;;27.00;21.00;;;;;4.76;70.03;101269.47;5060721;28;46310;-55
2021/12/03 01:13:09;;;;;;;;;24.25;20.00;;;;;4.76;70.24;101266.84;5056661;28;45416;-52
2021/12/03 01:15:37;;;;;;;;;19.25;16.50;;;;;4.76;69.40;101269.47;5057727;28;45393;-54
2021/12/03 01:18:05;;;;;;;;;24.25;20.00;;;;;4.78;69.53;101279.84;5055450;28;45485;-51
2021/12/03 01:20:31;;;;;;;;;23.00;21.75;;;;;4.80;69.50;101274.59;5057027;28;45589;-56
2021/12/03 01:22:58;;;;;;;;;26.75;21.50;;;;;4.80;69.81;101277.19;5058067;28;45469;-56
2021/12/03 01:25:24;;;;;;;;;31.50;23.25;;;;;4.83;69.84;101277.13;5057368;28;45394;-55
2021/12/03 01:27:52;;;;;;;;;28.25;23.25;;;;;4.82;69.82;101273.66;5060453;28;45242;-53
2021/12/03 01:30:21;;;;;;;;;32.25;26.75;;;;;4.86;69.13;101285.72;5057433;28;45520;-57
2021/12/03 01:32:47;;;;;;;;;27.00;22.50;;;;;4.88;70.10;101285.66;5057218;28;45607;-53
2021/12/03 01:35:13;;;;;;;;;23.50;21.25;;;;;4.89;69.75;101280.41;5060192;28;45767;-53
2021/12/03 01:37:39;;;;;;;;;27.75;23.75;;;;;4.90;70.19;101284.75;5057637;28;45544;-52
2021/12/03 01:40:09;;;;;;;;;19.75;16.25;;;;;4.93;70.22;101282.06;5058785;28;46206;-54
2021/12/03 01:42:34;;;;;;;;;27.50;23.75;;;;;4.95;69.41;101282.84;5058934;28;45372;-54
2021/12/03 01:45:00;;;;;;;;;24.25;21.00;;;;;4.95;69.50;101287.22;5057246;28;45453;-54
2021/12/03 01:47:26;;;;;;;;;27.00;23.75;;;;;4.95;70.12;101287.22;5057531;28;45388;-52
2021/12/03 01:49:51;;;;;;;;;27.75;24.50;;;;;4.95;69.10;101284.59;5056487;28;45402;-53
2021/12/03 01:52:17;;;;;;;;;28.25;23.25;;;;;4.94;70.28;101282.91;5058381;28;45337;-55
2021/12/03 01:54:43;;;;;;;;;30.25;21.75;;;;;4.94;69.70;101294.19;5055114;28;45254;-55
2021/12/03 01:57:09;;;;;;;;;21.00;19.50;;;;;4.96;70.08;101310.66;5053888;28;45664;-52
2021/12/03 01:59:34;;;;;;;;;25.25;21.75;;;;;4.95;69.30;101308.97;5054291;28;45509;-51
2021/12/03 02:02:00;;;;;;;;;21.00;16.25;;;;;4.95;69.09;101292.44;5058786;28;45353;-53
2021/12/03 02:04:26;;;;;;;;;28.00;19.00;;;;;4.96;70.16;101299.38;5059062;28;45513;-53
2021/12/03 02:06:51;;;;;;;;;27.25;20.50;;;;;4.97;69.17;101288.88;5059679;28;45363;-53
2021/12/03 02:09:16;;;;;;;;;27.25;21.00;;;;;5.00;69.22;101293.19;5060544;28;46091;-55
2021/12/03 02:11:42;;;;;;;;;27.00;23.75;;;;;5.04;69.25;101297.41;5061260;28;45477;-54
2021/12/03 02:14:08;;;;;;;;;24.75;20.25;;;;;5.07;69.22;101292.13;5055154;28;45254;-55
2021/12/03 02:16:34;;;;;;;;;28.25;23.50;;;;;5.10;69.71;101283.34;5060555;28;45333;-55
2021/12/03 02:18:59;;;;;;;;;24.50;20.50;;;;;5.11;69.01;101288.50;5059959;28;45384;-55
2021/12/03 02:21:25;;;;;;;;;29.00;24.00;;;;;5.13;69.36;101288.47;5059202;28;45560;-53
2021/12/03 02:23:52;;;;;;;;;23.75;19.50;;;;;5.11;69.11;101285.91;5059859;28;45369;-57
2021/12/03 02:26:18;;;;;;;;;29.50;21.00;;;;;5.12;69.35;101285.00;5060684;28;45530;-56
2021/12/03 02:28:46;;;;;;;;;27.25;20.75;;;;;5.15;69.53;101289.31;5059687;28;46071;-56
2021/12/03 02:31:14;;;;;;;;;29.00;21.50;;;;;5.16;69.48;101291.00;5060264;28;45730;-56
2021/12/03 02:33:40;;;;;;;;;26.75;23.50;;;;;5.15;69.01;101284.06;5060207;28;45474;-56
2021/12/03 02:36:06;;;;;;;;;23.75;19.00;;;;;5.14;68.80;101280.63;5060688;28;45276;-57
2021/12/03 02:38:32;;;;;;;;;30.25;23.50;;;;;5.17;69.33;101283.13;5060092;28;46036;-56
2021/12/03 02:40:58;;;;;;;;;20.00;17.50;;;;;5.21;69.60;101286.50;5060224;28;45241;-57
2021/12/03 02:43:24;;;;;;;;;26.75;23.25;;;;;5.24;69.60;101289.03;5060317;28;45289;-57
2021/12/03 02:45:51;;;;;;;;;24.25;23.50;;;;;5.26;69.04;101288.09;5060654;28;45357;-56
2021/12/03 02:48:17;;;;;;;;;29.00;21.75;;;;;5.30;69.29;101283.66;5059825;28;45602;-56
2021/12/03 02:50:43;;;;;;;;;24.50;22.50;;;;;5.34;69.29;101285.25;5060507;28;45285;-56
2021/12/03 02:53:08;;;;;;;;;25.75;18.50;;;;;5.37;68.53;101272.09;5060012;28;45412;-57
2021/12/03 02:55:34;;;;;;;;;27.00;21.50;;;;;5.40;69.62;101269.41;5060198;28;45456;-56
2021/12/03 02:58:00;;;;;;;;;21.50;19.50;;;;;5.43;69.81;101264.06;5059989;28;46096;-56
2021/12/03 03:00:27;;;;;;;;;21.50;18.25;;;;;5.45;68.31;101256.19;5060056;28;45348;-56
2021/12/03 03:02:53;;;;;;;;;23.75;22.00;;;;;5.45;68.98;101240.50;5060108;28;45222;-56
2021/12/03 03:05:21;;;;;;;;;18.75;15.00;;;;;5.48;69.74;101243.91;5059020;28;45193;-56
2021/12/03 03:07:46;;;;;;;;;27.50;17.25;;;;;5.50;69.14;101239.47;5059904;28;45483;-56
2021/12/03 03:10:15;;;;;;;;;20.00;16.75;;;;;5.53;69.19;101236.78;5060785;28;45402;-56
2021/12/03 03:12:42;;;;;;;;;13.25;11.75;;;;;5.56;68.68;101235.84;5062006;28;45490;-56
2021/12/03 03:15:09;;;;;;;;;23.50;14.50;;;;;5.59;68.28;101235.72;5059993;28;45549;-57
2021/12/03 03:17:35;;;;;;;;;13.00;12.00;;;;;5.62;68.96;101224.34;5059988;28;45409;-56
2021/12/03 03:20:02;;;;;;;;;12.75;8.00;;;;;5.64;69.02;101227.75;5059788;28;45837;-57
2021/12/03 03:22:28;;;;;;;;;13.25;11.75;;;;;5.68;68.36;101232.84;5060211;28;45327;-56
2021/12/03 03:24:59;;;;;;;;;9.00;8.75;;;;;5.69;68.48;101224.13;5059682;28;45483;-57
2021/12/03 03:27:25;;;;;;;;;12.00;8.50;;;;;5.72;68.48;101233.59;5059603;28;45255;-56
2021/12/03 03:29:51;;;;;;;;;10.00;9.00;;;;;5.73;68.92;101228.31;5061714;28;45282;-57
2021/12/03 03:32:18;;;;;;;;;10.75;6.00;;;;;5.75;68.46;101223.91;5063125;28;45322;-56
2021/12/03 03:34:43;;;;;;;;;15.25;8.75;;;;;5.77;67.87;101234.31;5054452;28;45616;-56
2021/12/03 03:37:09;;;;;;;;;13.00;9.25;;;;;5.75;67.91;101230.88;5063328;28;45471;-56
2021/12/03 03:39:36;;;;;;;;;8.75;7.50;;;;;5.75;67.67;101233.50;5062750;28;45376;-57
2021/12/03 03:42:02;;;;;;;;;10.00;8.50;;;;;5.75;68.28;101236.97;5063238;28;45311;-57
2021/12/03 03:44:28;;;;;;;;;11.75;10.00;;;;;5.76;68.26;101232.59;5063035;28;45247;-56
2021/12/03 03:46:55;;;;;;;;;10.00;9.25;;;;;5.79;67.42;101235.13;5063129;28;46193;-56
2021/12/03 03:49:22;;;;;;;;;5.25;5.25;;;;;5.80;67.34;101242.91;5062846;27;45225;-57
2021/12/03 03:51:48;;;;;;;;;10.50;7.25;;;;;5.79;67.86;101237.75;5063232;28;45438;-57
2021/12/03 03:54:14;;;;;;;;;9.00;7.75;;;;;5.81;67.70;101238.53;5062525;28;45374;-56
2021/12/03 03:56:40;;;;;;;;;12.75;9.00;;;;;5.80;67.25;101229.84;5062327;28;45400;-56
2021/12/03 03:59:05;;;;;;;;;12.50;8.75;;;;;5.80;66.93;101231.59;5059293;28;45399;-57
2021/12/03 04:01:31;;;;;;;;;10.00;9.00;;;;;5.77;66.86;101222.13;5062584;27;45391;-56
2021/12/03 04:03:57;;;;;;;;;10.50;8.75;;;;;5.76;67.46;101220.38;5062648;28;45346;-57
2021/12/03 04:06:23;;;;;;;;;12.00;11.00;;;;;5.75;67.52;101218.66;5062719;28;45295;-57
2021/12/03 04:08:49;;;;;;;;;9.50;8.50;;;;;5.73;67.16;101230.09;5062208;28;45359;-56
2021/12/03 04:11:17;;;;;;;;;9.50;8.00;;;;;5.72;66.74;101220.53;5066163;28;45552;-57
2021/12/03 04:13:43;;;;;;;;;12.25;9.25;;;;;5.70;67.13;101217.13;5062592;28;45425;-56
2021/12/03 04:16:09;;;;;;;;;10.00;9.00;;;;;5.67;67.27;101207.59;5062438;27;45402;-57
2021/12/03 04:18:35;;;;;;;;;14.00;7.00;;;;;5.66;67.47;101203.28;5062328;28;45413;-57
2021/12/03 04:21:01;;;;;;;;;10.00;6.00;;;;;5.65;67.33;101204.19;5061448;28;45700;-57
2021/12/03 04:23:27;;;;;;;;;5.00;4.00;;;;;5.63;66.84;101213.84;5061455;28;45813;-57
2021/12/03 04:25:53;;;;;;;;;10.50;7.00;;;;;5.61;67.01;101218.28;5062335;28;45342;-56
2021/12/03 04:28:20;;;;;;;;;6.25;6.00;;;;;5.64;66.84;101219.91;5062046;28;45221;-56
2021/12/03 04:30:46;;;;;;;;;8.50;8.50;;;;;5.64;66.47;101231.22;5061850;28;45309;-57
2021/12/03 04:33:12;;;;;;;;;11.25;8.00;;;;;5.69;67.51;101237.19;5062063;28;45543;-57
2021/12/03 04:35:38;;;;;;;;;9.75;7.00;;;;;5.74;67.46;101213.50;5062132;28;45489;-56
2021/12/03 04:38:05;;;;;;;;;9.00;7.25;;;;;5.73;66.95;101217.00;5062175;28;45366;-57
2021/12/03 04:40:31;;;;;;;;;8.00;7.50;;;;;5.71;66.82;101214.47;5061061;28;45366;-57
2021/12/03 04:42:57;;;;;;;;;9.75;9.00;;;;;5.73;67.25;101225.72;5062014;28;45478;-56
2021/12/03 04:45:25;;;;;;;;;6.50;5.75;;;;;5.71;66.79;101211.84;5077359;28;45608;-57
2021/12/03 04:47:52;;;;;;;;;12.25;6.00;;;;;5.70;66.78;101204.91;5061958;28;45228;-56
2021/12/03 04:50:20;;;;;;;;;8.00;4.25;;;;;5.70;66.94;101215.38;5062206;28;45299;-57
2021/12/03 04:52:46;;;;;;;;;10.25;8.75;;;;;5.71;67.03;101208.38;5062034;28;45462;-57
2021/12/03 04:55:13;;;;;;;;;9.00;6.50;;;;;5.71;67.21;101211.84;5061506;28;45885;-57
2021/12/03 04:57:39;;;;;;;;;8.50;5.75;;;;;5.69;66.88;101207.53;5061836;28;45243;-56
2021/12/03 05:00:09;;;;;;;;;7.75;7.25;;;;;5.71;66.96;101216.22;5062049;27;45169;-57
2021/12/03 05:02:35;;;;;;;;;5.25;5.25;;;;;5.71;66.27;101204.00;5061741;28;45366;-56
2021/12/03 05:05:03;;;;;;;;;6.25;5.00;;;;;5.72;66.34;101210.94;5061583;27;45453;-57
2021/12/03 05:07:53;;;;;;;;;10.50;9.00;;;;;5.73;66.88;101206.56;5061542;28;45181;-57
2021/12/03 05:10:17;;;;;;;;;8.75;7.50;;;;;5.72;66.41;101191.78;5063223;28;45319;-57
2021/12/03 05:12:43;;;;;;;;;12.75;5.00;;;;;5.74;66.89;101187.34;5063137;28;45417;-57
2021/12/03 05:15:10;;;;;;;;;9.50;5.75;;;;;5.75;66.71;101187.31;5061374;28;45381;-57
2021/12/03 05:17:35;;;;;;;;;11.25;7.00;;;;;5.77;66.54;101176.81;5061461;28;45385;-57
2021/12/03 05:20:02;;;;;;;;;7.50;7.50;;;;;5.80;66.44;101171.47;5061450;28;45384;-57
2021/12/03 05:22:27;;;;;;;;;6.00;6.00;;;;;5.78;66.03;101166.31;5061608;28;45393;-57
2021/12/03 05:24:53;;;;;;;;;6.00;5.75;;;;;5.78;65.88;101170.69;5061006;28;45472;-56
2021/12/03 05:27:19;;;;;;;;;4.75;4.50;;;;;5.80;66.50;101174.94;5061163;28;45299;-56
2021/12/03 05:29:47;;;;;;;;;6.50;5.25;;;;;5.82;66.57;101169.66;5061418;28;45251;-57
2021/12/03 05:32:13;;;;;;;;;8.00;5.00;;;;;5.83;66.24;101169.59;5061474;28;45746;-57
2021/12/03 05:34:39;;;;;;;;;6.00;5.50;;;;;5.84;66.57;101171.31;5060903;28;46333;-56
2021/12/03 05:37:06;;;;;;;;;5.00;5.00;;;;;5.87;66.44;101158.16;5061239;27;45329;-56
2021/12/03 05:39:33;;;;;;;;;6.00;5.00;;;;;5.90;65.99;101162.44;5061176;28;45357;-57
2021/12/03 05:41:59;;;;;;;;;4.50;4.25;;;;;5.93;66.31;101159.75;5061281;27;45161;-57
2021/12/03 05:44:25;;;;;;;;;7.00;5.00;;;;;5.97;65.80;101152.66;5060927;28;45322;-57
2021/12/03 05:46:51;;;;;;;;;5.25;3.75;;;;;5.99;66.42;101158.69;5061078;28;45324;-56
2021/12/03 05:49:17;;;;;;;;;5.25;4.00;;;;;5.98;65.82;101157.81;5061085;28;45331;-57
2021/12/03 05:51:43;;;;;;;;;6.75;4.50;;;;;5.99;65.58;101150.84;5060854;28;45299;-57
2021/12/03 05:54:09;;;;;;;;;9.25;5.75;;;;;6.00;65.89;101140.31;5060427;28;45364;-57
2021/12/03 05:56:35;;;;;;;;;4.50;4.50;;;;;6.02;65.74;101137.69;5060921;28;45474;-56
2021/12/03 05:59:00;;;;;;;;;5.25;4.50;;;;;6.05;65.67;101127.94;5060928;28;45400;-57
2021/12/03 06:01:26;;;;;;;;;8.00;4.50;;;;;6.09;65.78;101118.25;5061091;28;45444;-56
2021/12/03 06:03:52;;;;;;;;;3.50;3.50;;;;;6.12;65.31;101116.38;5060463;28;46031;-57
2021/12/03 06:06:17;;;;;;;;;8.50;4.00;;;;;6.17;65.79;101113.59;5060802;28;45200;-57
2021/12/03 06:08:43;;;;;;;;;6.75;3.25;;;;;6.17;65.57;101111.00;5060661;28;45243;-57
2021/12/03 06:11:09;;;;;;;;;9.25;5.00;;;;;6.19;65.65;101110.94;5064365;28;45385;-57
2021/12/03 06:13:39;;;;;;;;;4.50;3.25;;;;;6.19;65.53;101114.41;5074044;28;46077;-56
2021/12/03 06:16:07;;;;;;;;;4.00;4.00;;;;;6.21;65.87;101125.66;5049935;28;45437;-56
2021/12/03 06:18:32;;;;;;;;;6.00;5.50;;;;;6.22;65.33;101122.13;5056702;28;45398;-56
2021/12/03 06:20:58;;;;;;;;;3.50;2.75;;;;;6.23;65.50;101118.59;5060443;28;45461;-58
2021/12/03 06:23:23;;;;;;;;;6.75;2.50;;;;;6.24;65.72;101122.94;5060215;28;45294;-57
2021/12/03 06:25:49;;;;;;;;;3.25;2.75;;;;;6.28;65.09;101124.53;5060445;28;45204;-57
2021/12/03 06:28:15;;;;;;;;;6.50;5.00;;;;;6.28;64.67;101128.91;5060384;28;45303;-57
2021/12/03 06:30:41;;;;;;;;;7.25;5.00;;;;;6.27;65.43;101120.22;5060138;28;45502;-57
2021/12/03 06:33:06;;;;;;;;;5.25;3.25;;;;;6.26;64.56;101131.59;5059992;28;45260;-57
2021/12/03 06:35:32;;;;;;;;;5.75;2.75;;;;;6.26;65.02;101131.59;5059693;28;45476;-56
2021/12/03 06:37:57;;;;;;;;;6.25;4.00;;;;;6.28;64.93;101135.00;5060231;28;45271;-50
2021/12/03 06:40:26;;;;;;;;;2.75;2.00;;;;;6.30;64.47;101137.56;5060031;28;45656;-57
2021/12/03 06:42:52;;;;;;;;;3.25;3.25;;;;;6.32;64.45;101130.50;5057713;27;45484;-57
2021/12/03 06:45:19;;;;;;;;;3.00;3.00;;;;;6.29;64.92;101134.09;5059376;28;45271;-58
2021/12/03 06:47:44;;;;;;;;;6.00;3.25;;;;;6.30;64.79;101129.72;5059900;28;45221;-50
2021/12/03 06:50:13;;;;;;;;;3.00;2.25;;;;;6.32;64.46;101127.88;5058911;27;45496;-53
2021/12/03 06:52:40;;;;;;;;;4.75;1.75;;;;;6.31;64.38;101127.03;5059802;28;45385;-54
2021/12/03 06:55:09;;;;;;;;;2.75;2.25;;;;;6.32;64.37;101136.63;5059639;28;45426;-53
2021/12/03 06:57:35;;;;;;;;;3.50;3.50;;;;;6.35;64.85;101126.03;5059783;28;45180;-48
2021/12/03 07:00:00;;;;;;;;;4.00;2.00;;;;;6.37;64.64;101123.34;5060233;28;45252;-52
2021/12/03 07:02:25;;;;;;;;;1.25;1.25;;;;;6.36;64.51;101124.25;5059741;28;46306;-52
2021/12/03 07:04:51;;;;;;;;;3.25;2.50;;;;;6.40;64.56;101115.41;5062016;28;45380;-52
2021/12/03 07:07:16;;;;;;;;;1.75;1.75;;;;;6.43;64.34;101128.38;5063321;28;45623;-54
2021/12/03 07:09:42;;;;;;;;;1.00;1.00;;;;;6.42;64.13;101124.06;5062969;27;45531;-53
2021/12/03 07:12:09;;;;;;;;;5.75;2.75;;;;;6.41;64.67;101123.19;5066534;28;46115;-55
2021/12/03 07:14:35;;;;;;;;;1.00;0.00;;;;;6.42;63.82;101121.44;5062110;28;45373;-55
2021/12/03 07:17:05;;;;;;;;;1.75;1.00;;;;;6.42;63.63;101113.59;5062830;28;45441;-56
2021/12/03 07:19:31;;;;;;;;;2.00;2.00;;;;;6.42;64.11;101097.88;5062861;27;45366;-53
2021/12/03 07:21:56;;;;;;;;;3.25;2.00;;;;;6.40;64.46;101103.19;5062967;28;45307;-56
2021/12/03 07:24:21;;;;;;;;;6.00;2.75;;;;;6.34;63.74;101108.63;5063120;28;45185;-56
2021/12/03 07:26:47;;;;;;;;;3.25;2.75;;;;;6.31;64.56;101103.50;5063306;28;45241;-55
2021/12/03 07:29:13;;;;;;;;;5.50;4.25;;;;;6.28;64.14;101103.59;5063291;27;45405;-55
2021/12/03 07:31:38;;;;;;;;;5.00;2.25;;;;;6.28;63.68;101100.13;5062353;28;46040;-54
2021/12/03 07:34:04;;;;;;;;;5.00;1.75;;;;;6.27;64.24;101107.13;5061752;28;45415;-55
2021/12/03 07:36:29;;;;;;;;;3.00;3.00;;;;;6.29;64.67;101107.06;5062415;27;45394;-55
2021/12/03 07:38:55;;;;;;;;;5.75;2.75;;;;;6.30;63.76;101104.41;5062612;28;45429;-55
2021/12/03 07:41:20;;;;;;;;;4.50;2.00;;;;;6.27;64.22;101114.97;5062481;28;45968;-55
2021/12/03 07:43:46;;;;;;;;;7.00;2.00;;;;;6.29;64.25;101107.94;5062951;28;45374;-56
2021/12/03 07:46:11;;;;;;;;;3.75;3.25;;;;;6.32;64.46;101104.34;5062994;28;45377;-55
2021/12/03 07:48:37;;;;;;;;;4.50;4.00;;;;;6.33;63.94;101113.91;5063109;28;45517;-54
2021/12/03 07:51:03;;;;;;;;;5.00;1.50;;;;;6.32;63.74;101112.19;5062840;28;46342;-55
2021/12/03 07:53:29;;;;;;;;;5.25;2.25;;;;;6.30;64.65;101109.63;5062568;28;45342;-55
2021/12/03 07:55:55;;;;;;;;;5.25;3.50;;;;;6.30;64.62;101107.00;5060059;28;45338;-56
2021/12/03 07:58:21;;;;;;;;;2.00;2.00;;;;;6.33;64.58;101103.47;5055023;28;45391;-53
2021/12/03 08:00:47;;;;;;;;;8.50;6.25;;;;;6.34;64.04;101107.78;5062006;27;45290;-57
2021/12/03 08:03:13;;;;;;;;;70.33;57.67;;;;;6.33;64.33;101106.06;5062055;28;45496;-54
2021/12/03 08:05:39;;;;;;;;;4.50;3.25;;;;;6.35;64.00;101106.88;5062629;28;45352;-54
2021/12/03 08:08:06;;;;;;;;;5.00;2.50;;;;;6.38;63.79;101099.75;5062659;28;45473;-54
2021/12/03 08:10:35;;;;;;;;;6.75;6.00;;;;;6.40;63.98;101107.56;5065628;28;46079;-54
2021/12/03 08:13:02;;;;;;;;;8.50;3.50;;;;;6.43;63.25;101104.81;5062202;28;45448;-56
2021/12/03 08:15:28;;;;;;;;;3.25;2.00;;;;;6.49;63.42;101103.75;5062207;28;45341;-59
2021/12/03 08:17:54;;;;;;;;;2.00;2.00;;;;;6.48;63.28;101100.28;5062333;27;45460;-57
2021/12/03 08:20:20;;;;;;;;;8.75;3.75;;;;;6.48;62.89;101102.03;5077536;28;45920;-57
2021/12/03 08:22:46;;;;;;;;;4.00;4.00;;;;;6.51;62.94;101097.53;5062059;28;45347;-56
2021/12/03 08:25:12;;;;;;;;;9.25;5.00;;;;;6.51;63.41;101099.31;5061999;28;45374;-56
2021/12/03 08:27:40;;;;;;;;;7.75;3.00;;;;;6.53;63.32;101100.09;5061596;27;45636;-57
2021/12/03 08:30:10;;;;;;;;;3.00;3.00;;;;;6.57;63.24;101096.47;5056832;28;46233;-57
2021/12/03 08:32:36;;;;;;;;;5.00;5.00;;;;;6.60;63.02;101097.19;5074415;27;45541;-58
2021/12/03 08:35:04;;;;;;;;;6.50;2.75;;;;;6.65;62.94;101102.28;5056499;28;45596;-57
2021/12/03 08:37:29;;;;;;;;;1.50;1.50;;;;;6.65;62.33;101092.66;5056777;28;45580;-58
2021/12/03 08:47:34;;;;;;;;;1.00;1.00;;;;;6.73;62.59;101092.38;5022227;28;67623;-54
2021/12/03 08:50:00;;;;;;;;;5.00;2.75;;;;;6.74;62.54;101101.94;5035689;28;46697;-55
2021/12/03 08:52:48;;;;;;;;;4.00;3.00;;;;;6.77;62.21;101093.94;5036894;28;45449;-55
2021/12/03 08:55:13;;;;;;;;;4.00;4.00;;;;;6.81;62.54;101107.78;5035968;28;45438;-53
2021/12/03 08:57:39;;;;;;;;;5.00;2.00;;;;;6.83;61.85;101103.34;5026688;28;45609;-54
2021/12/03 09:00:14;;;;;;;;;2.00;1.25;;;;;6.81;62.26;101099.94;5028779;28;45496;-55
2021/12/03 09:02:42;;;;;;;;;2.25;2.00;;;;;6.86;61.68;101098.84;5040231;28;45392;-52
2021/12/03 09:05:08;;;;;;;;;6.00;4.00;;;;;6.89;61.72;101096.13;5028556;28;45498;-52
2021/12/03 09:07:35;;;;;;;;;7.00;7.00;;;;;6.89;61.53;101100.50;5031040;28;45681;-53
2021/12/03 09:10:01;;;;;;;;;7.00;6.50;;;;;6.91;61.87;101104.75;5028730;28;45544;-54
2021/12/03 09:12:27;;;;;;;;;3.50;3.50;;;;;6.92;62.02;101103.84;5027527;28;45525;-56
2021/12/03 09:14:56;;;;;;;;;9.75;8.25;;;;;6.89;61.88;101103.97;5027492;28;45543;-54
2021/12/03 09:22:33;;;;;;;;;8.50;5.00;;;;;7.00;62.68;101093.06;5026121;28;45445;-56
2021/12/03 09:24:59;;;;;;;;;3.75;3.00;;;;;7.00;61.60;101078.22;5026494;28;45518;-56
2021/12/03 09:27:25;;;;;;;;;6.00;5.00;;;;;6.97;61.95;101082.72;5028952;28;45473;-55
2021/12/03 09:29:55;;;;;;;;;6.00;3.00;;;;;6.96;62.05;101081.03;5028376;28;46026;-56
2021/12/03 09:32:26;;;;;;;;;5.75;4.00;;;;;6.99;62.08;101081.75;5027709;28;45402;-55
2021/12/03 09:34:52;;;;;;;;;10.50;9.00;;;;;7.02;62.53;101064.19;5040418;28;45550;-56
2021/12/03 09:37:18;;;;;;;;;2.00;1.75;;;;;7.00;62.28;101062.50;5029316;28;45437;-56
2021/12/03 09:39:45;;;;;;;;;5.50;2.25;;;;;6.90;62.43;101066.41;5028162;28;45505;-57
2021/12/03 09:42:18;;;;;;;;;6.75;5.00;;;;;6.88;63.07;101055.13;5028609;28;45542;-55
2021/12/03 09:44:45;;;;;;;;;5.75;5.00;;;;;6.91;63.41;101054.16;5023239;28;45485;-55
2021/12/03 09:47:14;;;;;;;;;11.75;11.00;;;;;6.97;63.55;101053.91;5024947;28;45627;-55
2021/12/03 09:49:41;;;;;;;;;8.00;4.50;;;;;7.04;63.37;101051.91;5027737;28;45465;-55
2021/12/03 09:54:46;;;;;;;;;5.75;5.00;;;;;7.04;63.32;101051.91;5025990;28;45995;-54
2021/12/03 09:57:25;;;;;;;;;6.25;5.75;;;;;6.99;63.47;101047.69;5025733;28;45398;-55
2021/12/03 10:00:14;;;;;;;;;7.00;3.00;;;;;6.96;63.71;101049.59;5003543;28;46373;-55
2021/12/03 10:02:56;;;;;;;;;15.75;14.50;;;;;6.94;63.93;101052.25;5000389;28;45363;-53
2021/12/03 10:13:35;;;;;;;;;5.00;2.25;;;;;6.73;65.17;101053.09;5020429;28;45355;-53
2021/12/03 10:16:59;;;;;;;;;6.25;1.75;;;;;6.72;65.63;101040.94;5019917;28;45444;-56
2021/12/03 10:18:57;;;;;;;;;5.00;5.00;;;;;6.68;66.00;101041.94;5021553;28;45417;-54
2021/12/03 10:33:40;;;;;;;;;6.00;5.00;;;;;6.67;67.35;101008.84;5019839;28;45448;-55
2021/12/03 11:02:45;;;;;;;;;4.00;3.50;;;;;6.71;68.50;100952.81;5023361;28;45436;-55
2021/12/03 11:41:00;;;;;;;;;5.00;5.00;;;;;6.27;71.15;100886.53;5022902;28;45240;-57
2021/12/03 13:13:59;;;;;;;;;4.50;3.25;;;;;6.23;73.18;100734.09;5024441;28;45354;-56
2021/12/03 13:19:39;;;;;;;;;5.00;2.25;;;;;6.25;73.61;100713.97;5021581;28;45350;-57
2021/12/03 13:44:17;;;;;;;;;7.25;3.25;;;;;6.35;73.16;100683.88;5011069;28;45568;-53
2021/12/03 14:42:49;;;;;;;;;2.00;1.75;;;;;6.48;73.83;100561.22;5028719;28;45710;-55
2021/12/03 14:53:42;;;;;;;;;5.00;2.75;;;;;6.57;73.72;100559.97;5016922;28;45411;-56
2021/12/03 14:56:11;;;;;;;;;2.50;2.00;;;;;6.55;73.47;100543.47;5006400;28;46355;-56
2021/12/03 15:01:36;;;;;;;;;2.00;2.00;;;;;6.55;73.99;100530.38;5008552;28;45685;-56
2021/12/03 15:04:24;;;;;;;;;1.50;1.25;;;;;6.57;74.06;100537.25;5018095;28;45679;-56
2021/12/03 15:07:17;;;;;;;;;1.00;1.00;;;;;6.61;74.45;100523.09;5019980;28;45245;-56
2021/12/03 15:09:45;;;;;;;;;3.50;2.00;;;;;6.61;74.45;100523.09;5018362;28;46305;-58
2021/12/03 15:34:27;;;;;;;;;3.00;2.00;;;;;6.71;75.16;100506.06;5022160;28;45397;-58
2021/12/03 15:36:24;;;;;;;;;5.00;3.00;;;;;6.73;74.75;100511.22;5007909;28;45450;-57
2021/12/03 15:39:42;;;;;;;;;4.00;2.25;;;;;6.74;74.55;100497.22;5023203;28;45228;-58
2021/12/03 16:06:52;;;;;;;;;2.00;2.00;;;;;6.82;74.91;100460.19;5022943;28;45256;-59
2021/12/03 16:12:13;;;;;;;;;2.00;1.75;;;;;6.86;75.02;100443.41;5022922;28;45173;-59
2021/12/03 16:17:22;;;;;;;;;2.50;2.00;;;;;6.93;74.97;100426.47;5022339;28;45297;-59
2021/12/03 16:20:37;;;;;;;;;2.00;2.00;;;;;6.96;75.09;100416.72;5022685;28;45343;-59
2021/12/03 16:43:41;;;;;;;;;6.50;5.00;;;;;7.00;74.85;100389.44;5010958;28;46568;-58
2021/12/03 16:50:50;;;;;;;;;4.00;2.00;;;;;7.05;74.84;100370.88;4980598;28;45355;-58
2021/12/03 16:52:31;;;;;;;;;1.50;1.50;;;;;7.05;74.92;100360.41;5015306;28;45400;-58
2021/12/03 16:54:58;;;;;;;;;2.00;2.00;;;;;7.07;74.74;100349.84;5021922;28;45212;-58
2021/12/03 16:57:33;;;;;;;;;6.75;5.75;;;;;7.07;75.07;100348.06;5022167;28;45948;-58
2021/12/03 17:00:16;;;;;;;;;6.50;5.50;;;;;7.06;75.25;100350.78;5021975;28;45266;-58
2021/12/03 17:02:52;;;;;;;;;14.50;13.75;;;;;7.04;75.17;100342.16;5021969;28;45403;-58
2021/12/03 17:51:04;;;;;;;;;7.00;6.00;;;;;7.17;76.17;100291.66;5021276;28;45774;-58
2021/12/03 17:56:13;;;;;;;;;8.25;7.75;;;;;7.17;76.23;100275.94;5021218;28;45316;-58
2021/12/03 17:58:43;;;;;;;;;7.25;6.00;;;;;7.18;75.90;100267.16;5021239;28;45496;-59
2021/12/03 18:01:20;;;;;;;;;9.50;6.75;;;;;7.20;75.66;100256.63;5020721;28;45389;-58
2021/12/03 18:43:51;;;;;;;;;10.00;8.00;;;;;7.37;76.39;100172.72;5020408;28;45737;-58
2021/12/03 18:49:05;;;;;;;;;15.00;12.00;;;;;7.42;76.33;100161.97;5020255;28;45289;-59
2021/12/03 18:57:07;;;;;;;;;12.00;10.50;;;;;7.46;76.40;100151.25;5020414;28;45337;-58
2021/12/03 18:59:37;;;;;;;;;12.50;10.50;;;;;7.46;76.63;100140.78;5020672;28;45250;-58
2021/12/03 19:02:07;;;;;;;;;8.25;7.75;;;;;7.49;76.48;100142.38;5023773;28;45553;-58
2021/12/03 19:04:41;;;;;;;;;9.00;7.00;;;;;7.49;76.24;100142.38;5023820;28;45257;-58